Latest Weather Observations for Ben Nevis

IDV60801

Issued at 10:02 pm EDT Saturday 6 February 2016 (issued every 30 minutes, with the page automatically refreshed every 10 minutes)

About weather observations | Map of weather stations | Latest weather observations for VIC | Other Formats
Station Details ID: 079101 Name: BEN NEVIS Lat: -37.23 Lon: 143.20 Height: 875.0 m
Data from the previous 72 hours. | See also: Recent months at Ben Nevis
Date/Time
EDT
Temp
°C
App
Temp
°C
Dew
Point
Rel
Hum
%
Delta-T
°C
Wind Press
QNH
hPa
Press
MSL
hPa
Rain
since 9 am
mm
Dir
 
Spd
km/h
Gust
km/h
Spd
kts
Gust
kts
06/10:00pm 21.0 16.6 7.6 42 7.2 S 20 32 11 17 - - 0.0
06/09:30pm 21.1 15.4 6.6 39 7.7 S 26 35 14 19 - - 0.0
06/09:00pm 21.7 16.0 6.8 38 7.9 S 26 35 14 19 - - 0.0
06/08:30pm 22.3 17.0 6.9 37 8.3 SSW 24 33 13 18 - - 0.0
06/08:10pm 23.7 19.2 6.9 34 9.1 SSW 20 41 11 22 - - 0.0
06/08:00pm 25.4 22.9 6.6 30 10.2 SW 9 13 5 7 - - 0.0
06/07:30pm 26.1 23.6 6.7 29 10.6 SW 9 17 5 9 - - 0.0
06/07:00pm 26.6 23.7 6.6 28 10.9 SW 11 15 6 8 - - 0.0
06/06:30pm 27.1 24.4 7.5 29 10.9 SSW 11 19 6 10 - - 0.0
06/06:00pm 26.8 25.0 7.3 29 10.8 NNE 6 7 3 4 - - 0.0
06/05:30pm 27.3 25.2 6.7 27 11.3 SSW 7 13 4 7 - - 0.0
06/05:00pm 26.3 23.9 6.9 29 10.6 NW 9 17 5 9 - - 0.0
06/04:30pm 27.2 24.9 7.6 29 10.9 N 9 15 5 8 - - 0.0
06/04:00pm 27.4 25.7 8.3 30 10.8 NNW 7 19 4 10 - - 0.0
06/03:30pm 27.9 25.9 8.7 30 10.9 NW 9 17 5 9 - - 0.0
06/03:00pm 27.7 25.7 8.6 30 10.9 W 9 19 5 10 - - 0.0
06/02:30pm 26.4 24.6 7.9 31 10.3 WNW 7 15 4 8 - - 0.0
06/02:00pm 26.1 23.6 8.1 32 10.1 WNW 11 19 6 10 - - 0.0
06/01:30pm 25.9 24.1 9.3 35 9.5 NNW 9 15 5 8 - - 0.0
06/01:00pm 25.5 23.3 9.3 36 9.2 NW 11 17 6 9 - - 0.0
06/12:30pm 23.6 21.1 8.1 37 8.6 N 11 24 6 13 - - 0.0
06/12:00pm 22.9 20.7 9.3 42 7.6 N 11 17 6 9 - - 0.0
06/11:30am 22.2 20.0 9.4 44 7.2 N 11 19 6 10 - - 0.0
06/11:00am 21.1 18.4 9.0 46 6.7 N 13 20 7 11 - - 0.0
06/10:30am 20.8 18.2 9.4 48 6.3 N 13 20 7 11 - - 0.0
06/10:00am 19.3 16.1 8.6 50 5.8 NNE 15 24 8 13 - - 0.0
06/09:30am 18.2 14.6 8.2 52 5.4 NNE 17 26 9 14 - - 0.0
06/09:00am 18.1 13.9 8.4 53 5.2 NNE 20 33 11 18 - - 0.0
06/08:30am 17.5 13.5 8.1 54 5.0 NNE 19 30 10 16 - - 0.0
06/08:00am 16.8 12.7 8.5 58 4.4 NNE 20 32 11 17 - - 0.0
06/07:30am 16.1 12.2 8.6 61 4.0 NNE 19 32 10 17 - - 0.0
06/07:00am 16.0 11.5 8.7 62 3.9 NNE 22 30 12 16 - - 0.0
06/06:30am 16.2 12.1 8.7 61 4.0 NE 20 32 11 17 - - 0.0
06/06:00am 17.0 11.8 8.7 58 4.5 NE 26 41 14 22 - - 0.0
06/05:30am 18.0 14.1 8.6 54 5.1 NNE 19 28 10 15 - - 0.0
06/05:00am 17.8 14.9 8.1 53 5.2 NNE 13 22 7 12 - - 0.0
06/04:30am 17.6 14.5 7.4 51 5.4 NNE 13 20 7 11 - - 0.0
06/04:00am 18.1 14.9 6.9 48 5.9 NNE 13 20 7 11 - - 0.0
06/03:30am 18.9 15.3 6.7 45 6.4 NNE 15 24 8 13 - - 0.0
06/03:00am 19.4 15.2 5.8 41 7.0 NNE 17 24 9 13 - - 0.0
06/02:30am 19.8 15.2 5.5 39 7.4 NNE 19 28 10 15 - - 0.0
06/02:00am 19.0 15.0 6.8 45 6.4 NE 17 22 9 12 - - 0.0
06/01:30am 17.8 13.9 7.2 50 5.6 ENE 17 20 9 11 - - 0.0
06/01:00am 17.4 13.3 8.0 54 5.0 E 19 24 10 13 - - 0.0
06/12:30am 17.8 13.8 8.1 53 5.2 E 19 24 10 13 - - 0.0
06/12:00am 17.8 14.0 9.2 57 4.7 E 19 22 10 12 - - 0.0
 
Date/Time
EDT
Temp
°C
App
Temp
°C
Dew
Point
Rel
Hum
%
Delta-T
°C
Wind Press
QNH
hPa
Press
MSL
hPa
Rain
since 9 am
mm
Dir
 
Spd
km/h
Gust
km/h
Spd
kts
Gust
kts
05/11:30pm 17.8 14.1 9.4 58 4.6 E 19 26 10 14 - - 0.0
05/11:00pm 17.7 13.8 9.6 59 4.4 ESE 20 26 11 14 - - 0.0
05/10:30pm 17.4 13.9 10.3 63 3.9 ESE 19 26 10 14 - - 0.0
05/10:00pm 17.8 13.8 10.4 62 4.1 ESE 22 32 12 17 - - 0.0
05/09:30pm 18.4 14.0 10.3 59 4.5 ESE 24 35 13 19 - - 0.0
05/09:00pm 19.2 14.6 9.7 54 5.3 ESE 24 33 13 18 - - 0.0
05/08:30pm 20.2 15.5 9.2 49 6.1 ESE 24 32 13 17 - - 0.0
05/08:00pm 21.1 16.8 7.7 42 7.2 ESE 20 30 11 16 - - 0.0
05/07:30pm 22.2 17.9 5.2 33 8.8 ESE 17 24 9 13 - - 0.0
05/07:00pm 23.1 20.2 4.6 30 9.6 ESE 9 19 5 10 - - 0.0
05/06:30pm 23.8 19.4 4.7 29 9.9 SE 17 24 9 13 - - 0.0
05/06:00pm 24.4 20.7 6.2 31 9.8 SE 15 24 8 13 - - 0.0
05/05:30pm 24.5 21.4 7.2 33 9.4 ESE 13 20 7 11 - - 0.0
05/05:00pm 24.7 22.0 7.4 33 9.5 E 11 22 6 12 - - 0.0
05/04:30pm 24.4 21.3 7.1 33 9.4 ENE 13 20 7 11 - - 0.0
05/04:00pm 25.9 23.5 8.8 34 9.7 SSE 11 15 6 8 - - 0.0
05/03:30pm 25.6 23.8 9.4 36 9.2 SSE 9 17 5 9 - - 0.0
05/03:00pm 26.1 22.9 11.1 39 8.8 SW 19 28 10 15 - - 0.0
05/02:30pm 25.0 23.6 10.8 41 8.3 S 9 17 5 9 - - 0.0
05/02:00pm 22.9 21.2 10.0 44 7.3 E 9 17 5 9 - - 0.0
05/01:30pm 22.4 20.2 10.9 48 6.6 E 13 22 7 12 - - 0.0
05/01:00pm 23.0 22.5 12.0 50 6.5 W 6 11 3 6 - - 0.0
05/12:30pm 23.0 22.3 12.0 50 6.5 WNW 7 11 4 6 - - 0.0
05/12:00pm 20.6 19.4 10.4 52 5.8 NW 7 11 4 6 - - 0.0
05/11:30am 20.3 19.6 10.1 52 5.7 N 4 9 2 5 - - 0.0
05/11:00am 19.6 18.3 10.0 54 5.4 NE 7 15 4 8 - - 0.0
05/10:30am 18.5 15.8 9.0 54 5.2 NE 13 19 7 10 - - 0.0
05/10:00am 17.2 13.8 9.1 59 4.4 ENE 17 28 9 15 - - 0.0
05/09:30am 16.2 12.2 8.9 62 3.9 E 20 28 11 15 - - 0.0
05/09:00am 15.5 11.0 8.5 63 3.7 E 22 32 12 17 - - 0.0
05/08:30am 14.5 9.5 8.2 66 3.3 E 24 33 13 18 - - 0.0
05/08:00am 14.2 9.5 7.9 66 3.3 E 22 32 12 17 - - 0.0
05/07:30am 13.7 8.2 7.5 66 3.2 E 26 37 14 20 - - 0.0
05/07:00am 13.1 7.1 7.1 67 3.1 E 28 39 15 21 - - 0.0
05/06:30am 13.2 7.6 7.0 66 3.1 E 26 39 14 21 - - 0.0
05/06:00am 13.4 7.8 7.2 66 3.2 E 26 37 14 20 - - 0.0
05/05:30am 12.5 7.0 7.6 72 2.5 ESE 26 35 14 19 - - 0.0
05/05:00am 12.0 7.7 7.1 72 2.5 E 19 28 10 15 - - 0.0
05/04:30am 12.0 7.1 6.7 70 2.7 ESE 22 32 12 17 - - 0.0
05/04:00am 12.0 6.1 7.3 73 2.4 ESE 28 43 15 23 - - 0.0
05/03:38am 11.2 5.1 8.1 81 1.6 ESE 30 50 16 27 - - 0.0
05/03:30am 11.0 5.6 8.1 82 1.5 ESE 26 43 14 23 - - 0.0
05/03:00am 11.3 6.4 6.8 74 2.2 SE 22 37 12 20 - - 0.0
05/02:30am 12.1 7.7 7.2 72 2.5 ESE 20 30 11 16 - - 0.0
05/02:00am 12.3 8.5 7.6 73 2.4 SE 17 32 9 17 - - 0.0
05/01:30am 12.6 7.2 6.4 66 3.1 SE 24 43 13 23 - - 0.0
05/01:00am 12.8 7.8 3.7 54 4.3 SE 19 32 10 17 - - 0.0
05/12:30am 14.1 7.7 -1.5 34 6.7 SE 22 30 12 16 - - 0.0
05/12:00am 13.3 7.7 1.3 44 5.4 SE 20 35 11 19 - - 0.0
 
Date/Time
EDT
Temp
°C
App
Temp
°C
Dew
Point
Rel
Hum
%
Delta-T
°C
Wind Press
QNH
hPa
Press
MSL
hPa
Rain
since 9 am
mm
Dir
 
Spd
km/h
Gust
km/h
Spd
kts
Gust
kts
04/11:30pm 13.7 7.0 -4.0 29 7.1 SSE 22 43 12 23 - - 0.0
04/11:08pm 14.1 6.1 -5.6 25 7.7 SE 28 48 15 26 - - 0.0
04/11:00pm 13.6 6.6 -3.6 30 7.0 SE 24 37 13 20 - - 0.0
04/10:43pm 14.0 6.3 -3.3 30 7.1 SE 28 46 15 25 - - 0.0
04/10:30pm 13.8 6.3 -1.4 35 6.5 SE 28 43 15 23 - - 0.0
04/10:00pm 13.4 7.5 1.7 45 5.3 SSE 22 39 12 21 - - 0.0
04/09:30pm 13.3 8.1 5.5 59 3.8 SSE 22 37 12 20 - - 0.0
04/09:00pm 13.3 6.8 8.0 70 2.7 SSE 32 48 17 26 - - 0.0
04/08:41pm 14.0 8.2 8.0 67 3.1 SSE 28 46 15 25 - - 0.0
04/08:30pm 14.2 8.9 8.4 68 3.1 SSE 26 44 14 24 - - 0.0
04/08:18pm 14.7 9.0 8.2 65 3.4 SSE 28 46 15 25 - - 0.0
04/08:00pm 15.6 10.2 8.1 61 4.0 SSE 26 46 14 25 - - 0.0
04/07:34pm 16.2 10.3 7.7 57 4.5 SSE 28 50 15 27 - - 0.0
04/07:30pm 16.5 11.9 8.0 57 4.5 SSE 22 37 12 20 - - 0.0
04/07:00pm 17.8 12.0 8.1 53 5.2 S 28 52 15 28 - - 0.0
04/06:56pm 17.9 12.1 7.9 52 5.3 S 28 52 15 28 - - 0.0
04/06:30pm 19.0 14.5 8.4 50 5.7 S 22 46 12 25 - - 0.0
04/06:21pm 18.4 12.4 7.2 48 5.9 SSE 28 54 15 29 - - 0.0
04/06:00pm 19.3 15.0 6.8 44 6.6 SSE 19 37 10 20 - - 0.0
04/05:30pm 19.4 14.2 7.2 45 6.5 SSE 24 43 13 23 - - 0.0
04/05:00pm 19.1 14.4 6.2 43 6.7 SSE 20 44 11 24 - - 0.0
04/04:30pm 20.3 16.8 8.6 47 6.4 SSE 17 33 9 18 - - 0.0
04/04:00pm 19.3 14.4 8.3 49 6.0 SSE 24 43 13 23 - - 0.0
04/03:30pm 19.5 14.9 8.2 48 6.1 S 22 43 12 23 - - 0.0
04/03:00pm 17.9 12.5 7.9 52 5.3 S 26 44 14 24 - - 0.0
04/02:30pm 18.0 14.1 8.8 55 5.0 S 19 35 10 19 - - 0.0
04/02:00pm 17.7 14.5 8.3 54 5.0 S 15 32 8 17 - - 0.0
04/01:30pm 17.2 13.6 8.4 56 4.7 SSE 17 35 9 19 - - 0.0
04/01:00pm 16.2 12.5 7.9 58 4.4 S 17 35 9 19 - - 0.0
04/12:30pm 15.6 11.6 8.4 62 3.8 SSE 19 37 10 20 - - 0.0
04/12:00pm 14.4 10.2 8.4 67 3.2 SSE 20 32 11 17 - - 0.0
04/11:30am 13.5 9.2 7.7 68 3.0 SSE 20 33 11 18 - - 0.0
04/11:00am 12.9 9.2 7.8 71 2.6 SSE 17 32 9 17 - - 0.0
04/10:30am 12.3 8.9 7.8 74 2.3 SSE 15 32 8 17 - - 0.0
04/10:00am 11.8 8.7 7.1 73 2.4 SE 13 24 7 13 - - 0.0
04/09:30am 11.7 8.3 7.8 77 2.0 SSE 15 28 8 15 - - 0.0
04/09:00am 10.3 5.8 7.0 80 1.6 SSE 20 41 11 22 - - 0.8
04/08:30am 9.6 4.8 7.2 85 1.2 SSE 22 35 12 19 - - 0.8
04/08:01am 8.7 2.7 7.0 89 0.8 SSE 28 46 15 25 - - 0.8
04/08:00am 8.7 2.3 7.0 89 0.8 SSE 30 46 16 25 - - 0.8
04/07:35am 8.2 2.1 6.8 91 0.7 SSE 28 52 15 28 - - 0.8
04/07:30am 8.2 2.1 6.8 91 0.7 SSE 28 43 15 23 - - 0.8
04/07:08am 7.9 1.8 6.5 91 0.7 SSE 28 46 15 25 - - 0.8
04/07:00am 8.0 2.6 6.5 90 0.7 SSE 24 43 13 23 - - 0.8
04/06:30am 8.3 2.0 5.8 84 1.2 SSE 28 54 15 29 - - 0.8
04/06:00am 8.1 0.2 6.2 88 0.9 SSE 37 57 20 31 - - 0.8
04/05:30am 8.3 -0.3 6.4 88 0.9 SSE 41 61 22 33 - - 0.8
04/05:00am 8.1 -0.9 6.6 90 0.7 S 43 72 23 39 - - 0.8
04/04:30am 8.1 -0.2 6.2 88 0.9 SSE 39 57 21 31 - - 0.8
04/04:00am 7.9 -1.1 6.4 90 0.7 SSE 43 72 23 39 - - 0.8
04/03:30am 8.0 -0.3 6.3 89 0.8 S 39 63 21 34 - - 0.8
04/03:00am 8.1 -0.1 6.4 89 0.8 S 39 59 21 32 - - 0.8
04/02:37am 8.2 1.4 6.7 90 0.7 S 32 50 17 27 - - 0.8
04/02:30am 8.2 1.2 6.8 91 0.7 S 33 50 18 27 - - 0.8
04/02:00am 8.4 2.0 6.9 90 0.7 S 30 48 16 26 - - 0.8
04/01:34am 8.5 2.5 7.0 90 0.7 S 28 46 15 25 - - 0.8
04/01:30am 8.5 2.1 7.0 90 0.7 S 30 46 16 25 - - 0.8
04/01:00am 8.8 0.8 7.3 90 0.7 S 39 57 21 31 - - 0.8
04/12:33am 8.8 1.4 6.9 88 0.9 S 35 54 19 29 - - 0.8
04/12:30am 8.9 1.2 7.2 89 0.8 S 37 54 20 29 - - 0.8
04/12:00am 9.1 1.0 7.1 87 1.0 S 39 59 21 32 - - 0.8
 
Date/Time
EDT
Temp
°C
App
Temp
°C
Dew
Point
Rel
Hum
%
Delta-T
°C
Wind Press
QNH
hPa
Press
MSL
hPa
Rain
since 9 am
mm
Dir
 
Spd
km/h
Gust
km/h
Spd
kts
Gust
kts
03/11:30pm 9.1 2.1 6.7 85 1.2 S 33 56 18 30 - - 0.8
03/11:00pm 9.4 1.6 6.8 84 1.3 S 37 61 20 33 - - 0.8
03/10:30pm 9.9 3.2 7.2 83 1.3 S 32 50 17 27 - - 0.8

Other Formats:

Comma delimited format used in spreadsheet applications
http://www.bom.gov.au/fwo/IDV60801/IDV60801.94835.axf

JavaScript Object Notation format (JSON) in row-major order
http://www.bom.gov.au/fwo/IDV60801/IDV60801.94835.json